createdAt,value
2019-05-30T00:00:11.364Z,10.10
2019-05-30T00:01:38.645Z,10.06
2019-05-30T00:03:13.343Z,10.06
2019-05-30T00:04:49.621Z,10.11
2019-05-30T00:06:24.273Z,10.01
2019-05-30T00:08:00.294Z,10.08
2019-05-30T00:09:35.042Z,10.07
2019-05-30T00:11:10.295Z,10.15
2019-05-30T00:12:45.013Z,10.11
2019-05-30T00:14:20.251Z,10.11
2019-05-30T00:15:54.965Z,10.17
2019-05-30T00:17:30.172Z,10.14
2019-05-30T00:19:05.139Z,10.14
2019-05-30T00:20:40.303Z,10.14
2019-05-30T00:22:15.063Z,10.09
2019-05-30T00:23:50.272Z,10.07
2019-05-30T00:25:24.921Z,10.14
2019-05-30T00:27:00.329Z,10.14
2019-05-30T00:28:35.090Z,10.04
2019-05-30T00:30:24.061Z,10.04
2019-05-30T00:31:47.687Z,10.10
2019-05-30T00:33:23.023Z,9.99
2019-05-30T00:34:57.894Z,9.99
2019-05-30T00:36:33.104Z,9.94
2019-05-30T00:38:07.772Z,9.87
2019-05-30T00:39:43.009Z,9.87
2019-05-30T00:41:17.667Z,9.89
2019-05-30T00:42:52.905Z,9.82
2019-05-30T00:44:27.672Z,9.89
2019-05-30T00:46:04.191Z,9.83
2019-05-30T00:47:38.901Z,9.84
2019-05-30T00:49:14.232Z,9.73
2019-05-30T00:50:48.873Z,9.83
2019-05-30T00:52:24.097Z,9.87
2019-05-30T00:53:58.769Z,9.87
2019-05-30T00:55:34.000Z,9.80
2019-05-30T00:57:08.643Z,9.76
2019-05-30T00:58:43.927Z,9.76
2019-05-30T01:00:18.760Z,9.69
2019-05-30T01:01:54.001Z,9.69
2019-05-30T01:03:28.654Z,9.67
2019-05-30T01:05:05.147Z,9.72
2019-05-30T01:06:39.920Z,9.72
2019-05-30T01:08:15.244Z,9.66
2019-05-30T01:09:49.898Z,9.70
2019-05-30T01:11:25.108Z,9.72
2019-05-30T01:13:01.277Z,9.67
2019-05-30T01:14:36.598Z,9.71
2019-05-30T01:16:11.250Z,9.69
2019-05-30T01:17:46.504Z,9.69
2019-05-30T01:19:21.149Z,9.73
2019-05-30T01:20:56.998Z,9.75
2019-05-30T01:22:31.832Z,9.79
2019-05-30T01:24:07.692Z,9.79
2019-05-30T01:25:42.457Z,9.71
2019-05-30T01:27:17.680Z,9.71
2019-05-30T01:28:52.318Z,9.75
2019-05-30T01:30:28.017Z,9.77
2019-05-30T01:32:21.692Z,9.82
2019-05-30T01:33:57.465Z,9.82
2019-05-30T01:35:32.794Z,9.79
2019-05-30T01:37:07.893Z,9.76
2019-05-30T01:38:43.160Z,9.67
2019-05-30T01:40:17.823Z,9.77
2019-05-30T01:41:53.058Z,9.77
2019-05-30T01:43:27.752Z,9.72
2019-05-30T01:45:04.142Z,9.69
2019-05-30T01:46:38.821Z,9.70
2019-05-30T01:48:14.060Z,9.71
2019-05-30T01:49:48.703Z,9.60
2019-05-30T01:51:23.945Z,9.61
2019-05-30T01:52:58.584Z,9.65
2019-05-30T01:54:33.847Z,9.61
2019-05-30T01:56:08.981Z,9.54
2019-05-30T01:57:44.276Z,9.68
2019-05-30T01:59:18.948Z,9.54
2019-05-30T02:00:54.215Z,9.54
2019-05-30T02:02:28.861Z,9.57
2019-05-30T02:04:05.208Z,9.56
2019-05-30T02:05:40.089Z,9.54
2019-05-30T02:07:15.319Z,9.69
2019-05-30T02:08:50.011Z,9.58
2019-05-30T02:10:25.369Z,9.62
2019-05-30T02:12:01.191Z,9.69
2019-05-30T02:13:36.616Z,9.57
2019-05-30T02:15:12.411Z,9.57
2019-05-30T02:16:47.899Z,9.64
2019-05-30T02:18:22.616Z,9.57
2019-05-30T02:19:59.692Z,9.56
2019-05-30T02:21:34.386Z,9.56
2019-05-30T02:23:11.470Z,9.57
2019-05-30T02:24:45.978Z,9.57
2019-05-30T02:26:21.216Z,9.61
2019-05-30T02:27:56.422Z,9.61
2019-05-30T02:29:31.662Z,9.63
2019-05-30T02:31:07.094Z,9.63
2019-05-30T02:32:43.015Z,9.61
2019-05-30T02:34:17.637Z,9.59
2019-05-30T02:35:52.889Z,9.63
2019-05-30T02:37:27.547Z,9.60
2019-05-30T02:39:03.089Z,9.52
2019-05-30T02:40:37.775Z,9.66
2019-05-30T02:42:13.078Z,9.59
2019-05-30T02:43:51.953Z,9.65
2019-05-30T02:45:27.250Z,9.67
2019-05-30T02:47:03.529Z,9.68
2019-05-30T02:48:57.385Z,9.65
2019-05-30T02:50:15.666Z,9.73
2019-05-30T02:51:50.905Z,9.72
2019-05-30T02:53:25.592Z,9.72
2019-05-30T02:55:01.788Z,9.70
2019-05-30T02:56:37.148Z,9.67
2019-05-30T02:58:12.956Z,9.65
2019-05-30T02:59:49.057Z,9.60
2019-05-30T03:01:24.317Z,9.60
2019-05-30T03:02:59.009Z,9.64
2019-05-30T03:04:34.222Z,9.64
2019-05-30T03:06:11.043Z,9.68
2019-05-30T03:07:45.897Z,9.69
2019-05-30T03:09:20.692Z,9.68
2019-05-30T03:10:56.220Z,9.71
2019-05-30T03:12:30.942Z,9.75
2019-05-30T03:14:12.084Z,9.71
2019-05-30T03:15:43.716Z,9.71
2019-05-30T03:17:18.990Z,9.84
2019-05-30T03:18:54.080Z,9.89
2019-05-30T03:20:29.362Z,9.89
2019-05-30T03:22:05.189Z,9.87
2019-05-30T03:23:42.549Z,9.87
2019-05-30T03:25:17.460Z,9.91
2019-05-30T03:26:52.797Z,9.96
2019-05-30T03:28:27.758Z,10.03
2019-05-30T03:30:07.524Z,10.05
2019-05-30T03:31:40.441Z,10.03
2019-05-30T03:33:36.089Z,10.09
2019-05-30T03:34:52.364Z,10.09
2019-05-30T03:36:31.380Z,10.17
2019-05-30T03:38:05.728Z,10.17
2019-05-30T03:39:41.276Z,10.26
2019-05-30T03:41:16.063Z,10.41
2019-05-30T03:42:51.774Z,10.39
2019-05-30T03:44:26.418Z,10.55
2019-05-30T03:46:03.912Z,10.64
2019-05-30T03:47:38.979Z,10.68
2019-05-30T03:49:17.869Z,10.68
2019-05-30T03:50:53.893Z,10.70
2019-05-30T03:52:29.309Z,10.68
2019-05-30T03:54:05.536Z,10.81
2019-05-30T03:55:42.032Z,10.92
2019-05-30T03:57:24.215Z,10.92
2019-05-30T03:59:05.911Z,10.88
2019-05-30T04:00:50.804Z,11.17
2019-05-30T04:02:56.468Z,11.20
2019-05-30T04:04:24.206Z,11.25
2019-05-30T04:06:02.684Z,11.25
2019-05-30T04:07:41.365Z,11.74
2019-05-30T04:09:22.470Z,11.65
2019-05-30T04:10:56.321Z,11.65
2019-05-30T04:12:55.479Z,11.74
2019-05-30T04:14:32.826Z,11.74
2019-05-30T04:16:08.692Z,12.13
2019-05-30T04:17:44.135Z,12.18
2019-05-30T04:19:20.093Z,12.17
2019-05-30T04:20:56.663Z,12.21
2019-05-30T04:22:31.309Z,12.21
2019-05-30T04:24:08.043Z,12.32
2019-05-30T04:25:43.882Z,12.30
2019-05-30T04:27:19.259Z,12.30
2019-05-30T04:28:53.954Z,12.29
2019-05-30T04:30:30.163Z,12.45
2019-05-30T04:32:05.976Z,12.42
2019-05-30T04:33:41.325Z,12.42
2019-05-30T04:35:16.871Z,12.67
2019-05-30T04:36:53.554Z,12.96
2019-05-30T04:38:28.623Z,12.96
2019-05-30T04:40:03.994Z,12.97
2019-05-30T04:41:38.658Z,13.01
2019-05-30T04:43:15.325Z,13.11
2019-05-30T04:44:50.272Z,13.21
2019-05-30T04:46:25.502Z,13.54
2019-05-30T04:48:00.182Z,13.39
2019-05-30T04:49:35.503Z,14.01
2019-05-30T04:51:10.834Z,15.33
2019-05-30T04:52:47.203Z,16.10
2019-05-30T04:54:22.304Z,15.65
2019-05-30T04:55:57.575Z,17.13
2019-05-30T04:57:32.239Z,17.64
2019-05-30T04:59:07.565Z,18.23
2019-05-30T05:00:42.300Z,18.76
2019-05-30T05:02:18.840Z,18.88
2019-05-30T05:03:54.016Z,19.18
2019-05-30T05:05:29.561Z,19.18
2019-05-30T05:07:04.245Z,20.61
2019-05-30T05:08:39.492Z,18.72
2019-05-30T05:10:14.149Z,19.24
2019-05-30T05:11:49.511Z,20.33
2019-05-30T05:13:24.186Z,19.53
2019-05-30T05:14:59.438Z,20.00
2019-05-30T05:16:36.313Z,18.67
2019-05-30T05:18:11.027Z,15.98
2019-05-30T05:19:46.774Z,15.23
2019-05-30T05:21:23.137Z,15.14
2019-05-30T05:22:57.914Z,14.90
2019-05-30T05:24:33.147Z,15.04
2019-05-30T05:26:07.781Z,15.00
2019-05-30T05:27:43.017Z,15.70
2019-05-30T05:29:18.004Z,15.48
2019-05-30T05:30:53.352Z,15.34
2019-05-30T05:32:28.086Z,15.00
2019-05-30T05:34:03.334Z,15.00
2019-05-30T05:35:37.977Z,14.66
2019-05-30T05:37:13.208Z,14.86
2019-05-30T05:38:47.845Z,14.90
2019-05-30T05:40:24.322Z,15.04
2019-05-30T05:41:59.107Z,15.14
2019-05-30T05:43:34.370Z,14.62
2019-05-30T05:45:09.382Z,14.66
2019-05-30T05:46:44.687Z,15.15
2019-05-30T05:48:20.391Z,14.95
2019-05-30T05:49:56.018Z,15.42
2019-05-30T05:51:30.771Z,15.15
2019-05-30T05:53:06.031Z,15.28
2019-05-30T05:54:40.687Z,15.35
2019-05-30T05:56:16.938Z,15.40
2019-05-30T05:57:52.112Z,15.27
2019-05-30T05:59:27.497Z,15.01
2019-05-30T06:01:02.205Z,15.40
2019-05-30T06:02:37.503Z,15.05
2019-05-30T06:04:13.885Z,15.31
2019-05-30T06:05:53.231Z,15.34
2019-05-30T06:07:25.845Z,15.34
2019-05-30T06:09:01.067Z,16.43
2019-05-30T06:10:35.997Z,15.87
2019-05-30T06:12:11.247Z,16.12
2019-05-30T06:13:45.944Z,15.79
2019-05-30T06:15:21.206Z,16.38
2019-05-30T06:16:56.205Z,16.24
2019-05-30T06:18:31.561Z,16.61
2019-05-30T06:20:06.662Z,15.98
2019-05-30T06:21:53.585Z,16.14
2019-05-30T06:23:19.481Z,16.60
2019-05-30T06:24:54.896Z,16.76
2019-05-30T06:26:29.543Z,16.66
2019-05-30T06:28:05.141Z,16.99
2019-05-30T06:29:39.816Z,16.81
2019-05-30T06:31:15.055Z,17.08
2019-05-30T06:32:49.736Z,16.90
2019-05-30T06:34:35.914Z,17.50
2019-05-30T06:36:01.417Z,17.36
2019-05-30T06:37:36.828Z,18.10
2019-05-30T06:39:11.479Z,20.67
2019-05-30T06:40:46.718Z,20.82
2019-05-30T06:42:21.696Z,23.02
2019-05-30T06:43:56.991Z,24.85
2019-05-30T06:45:31.702Z,27.12
2019-05-30T06:47:07.319Z,23.37
2019-05-30T06:48:42.055Z,20.77
2019-05-30T06:50:17.360Z,20.72
2019-05-30T06:51:52.114Z,20.75
2019-05-30T06:53:27.439Z,19.96
2019-05-30T06:55:02.083Z,20.27
2019-05-30T06:56:37.309Z,19.42
2019-05-30T06:58:12.020Z,19.36
2019-05-30T06:59:47.347Z,19.05
2019-05-30T07:01:22.156Z,18.95
2019-05-30T07:02:57.440Z,19.05
2019-05-30T07:04:50.430Z,19.07
2019-05-30T07:06:10.053Z,19.57
2019-05-30T07:07:45.262Z,18.32
2019-05-30T07:09:20.715Z,21.19
2019-05-30T07:10:55.357Z,20.70
2019-05-30T07:12:31.160Z,20.17
2019-05-30T07:14:06.556Z,19.95
2019-05-30T07:15:41.813Z,20.26
2019-05-30T07:17:16.482Z,19.81
2019-05-30T07:18:51.713Z,20.93
2019-05-30T07:20:27.500Z,20.21
2019-05-30T07:22:02.746Z,21.71
2019-05-30T07:23:39.412Z,21.25
2019-05-30T07:25:14.853Z,20.64
2019-05-30T07:26:49.515Z,21.17
2019-05-30T07:28:25.808Z,20.50
2019-05-30T07:30:00.464Z,20.91
2019-05-30T07:31:35.729Z,19.76
2019-05-30T07:33:10.415Z,19.61
2019-05-30T07:34:46.200Z,18.80
2019-05-30T07:36:20.973Z,19.14
2019-05-30T07:37:56.237Z,19.17
2019-05-30T07:39:33.706Z,19.45
2019-05-30T07:41:08.135Z,18.91
2019-05-30T07:42:42.805Z,18.73
2019-05-30T07:44:18.043Z,19.47
2019-05-30T07:45:58.048Z,19.18
2019-05-30T07:47:30.158Z,19.33
2019-05-30T07:49:05.036Z,19.42
2019-05-30T07:50:40.277Z,19.59
2019-05-30T07:52:14.926Z,18.76
2019-05-30T07:53:50.179Z,19.44
2019-05-30T07:55:24.818Z,19.36
2019-05-30T07:57:00.101Z,19.03
2019-05-30T07:58:35.356Z,18.91
2019-05-30T08:00:11.666Z,19.32
2019-05-30T08:01:46.357Z,19.36
2019-05-30T08:03:21.611Z,18.74
2019-05-30T08:04:56.290Z,19.51
2019-05-30T08:06:31.607Z,19.56
2019-05-30T08:08:06.343Z,20.23
2019-05-30T08:09:42.557Z,20.83
2019-05-30T08:11:17.214Z,20.02
2019-05-30T08:12:52.756Z,19.75
2019-05-30T08:14:27.408Z,20.01
2019-05-30T08:16:02.667Z,19.80
2019-05-30T08:17:37.883Z,19.55
2019-05-30T08:19:13.357Z,19.78
2019-05-30T08:20:48.028Z,19.18
2019-05-30T08:22:23.372Z,18.56
2019-05-30T08:23:58.178Z,18.11
2019-05-30T08:25:34.253Z,18.16
2019-05-30T08:27:09.037Z,17.91
2019-05-30T08:28:44.587Z,18.33
2019-05-30T08:30:19.505Z,17.73
2019-05-30T08:31:54.743Z,17.89
2019-05-30T08:33:29.770Z,18.27
2019-05-30T08:35:05.082Z,18.25
2019-05-30T08:36:39.747Z,18.16
2019-05-30T08:38:14.996Z,18.11
2019-05-30T08:39:49.629Z,18.64
2019-05-30T08:41:24.898Z,18.68
2019-05-30T08:42:59.550Z,18.39
2019-05-30T08:44:35.891Z,18.63
2019-05-30T08:46:10.668Z,19.04
2019-05-30T08:47:45.943Z,19.10
2019-05-30T08:49:21.732Z,18.76
2019-05-30T08:50:56.995Z,18.49
2019-05-30T08:52:32.429Z,19.23
2019-05-30T08:54:07.875Z,19.34
2019-05-30T08:55:43.011Z,19.32
2019-05-30T08:57:18.287Z,18.95
2019-05-30T08:58:52.943Z,18.87
2019-05-30T09:00:29.744Z,19.02
2019-05-30T09:02:04.606Z,19.27
2019-05-30T09:03:40.224Z,19.30
2019-05-30T09:05:15.199Z,19.72
2019-05-30T09:06:50.810Z,19.48
2019-05-30T09:08:25.455Z,19.21
2019-05-30T09:10:00.757Z,19.28
2019-05-30T09:11:37.675Z,19.40
2019-05-30T09:13:13.584Z,19.36
2019-05-30T09:14:48.305Z,18.93
2019-05-30T09:16:23.500Z,19.23
2019-05-30T09:17:58.517Z,19.42
2019-05-30T09:19:33.861Z,19.88
2019-05-30T09:21:08.866Z,20.33
2019-05-30T09:22:45.401Z,19.41
2019-05-30T09:24:20.459Z,19.83
2019-05-30T09:25:55.792Z,19.92
2019-05-30T09:27:30.432Z,20.10
2019-05-30T09:29:06.027Z,20.17
2019-05-30T09:30:41.602Z,21.01
2019-05-30T09:32:17.730Z,21.81
2019-05-30T09:33:52.447Z,21.78
2019-05-30T09:35:28.050Z,22.45
2019-05-30T09:37:02.727Z,22.41
2019-05-30T09:38:38.851Z,22.72
2019-05-30T09:40:15.443Z,22.64
2019-05-30T09:41:50.752Z,21.85
2019-05-30T09:43:25.415Z,22.84
2019-05-30T09:45:05.323Z,22.99
2019-05-30T09:46:41.355Z,23.64
2019-05-30T09:48:16.974Z,23.41
2019-05-30T09:49:51.774Z,23.78
2019-05-30T09:51:27.089Z,23.38
2019-05-30T09:53:01.757Z,22.25
2019-05-30T09:54:37.005Z,22.09
2019-05-30T09:56:12.745Z,21.68
2019-05-30T09:57:48.014Z,21.39
2019-05-30T09:59:22.650Z,21.15
2019-05-30T10:00:57.987Z,20.54
2019-05-30T10:02:33.696Z,20.48
2019-05-30T10:04:08.945Z,20.49
2019-05-30T10:05:45.116Z,20.53
2019-05-30T10:07:20.682Z,21.03
2019-05-30T10:08:55.381Z,21.55
2019-05-30T10:10:30.689Z,21.34
2019-05-30T10:12:05.336Z,21.33
2019-05-30T10:13:40.562Z,21.05
2019-05-30T10:15:15.487Z,20.85
2019-05-30T10:16:55.884Z,20.57
2019-05-30T10:18:27.145Z,20.06
2019-05-30T10:20:02.407Z,21.09
2019-05-30T10:21:37.213Z,20.76
2019-05-30T10:23:12.512Z,20.80
2019-05-30T10:24:47.607Z,20.76
2019-05-30T10:26:24.058Z,20.33
2019-05-30T10:27:58.740Z,19.59
2019-05-30T10:29:33.968Z,19.49
2019-05-30T10:31:08.616Z,19.71
2019-05-30T10:32:45.422Z,19.83
2019-05-30T10:34:20.328Z,19.80
2019-05-30T10:35:56.952Z,19.53
2019-05-30T10:37:32.773Z,19.35
2019-05-30T10:39:08.859Z,19.29
2019-05-30T10:40:43.610Z,19.03
2019-05-30T10:42:18.840Z,19.16
2019-05-30T10:43:53.513Z,19.11
2019-05-30T10:45:29.038Z,18.98
2019-05-30T10:47:03.702Z,18.92
2019-05-30T10:48:39.004Z,19.39
2019-05-30T10:50:14.110Z,19.40
2019-05-30T10:51:49.656Z,19.23
2019-05-30T10:53:24.310Z,19.28
2019-05-30T10:54:59.541Z,19.56
2019-05-30T10:56:34.334Z,19.46
2019-05-30T10:58:09.652Z,19.36
2019-05-30T10:59:45.983Z,20.01
2019-05-30T11:01:21.406Z,19.69
2019-05-30T11:02:57.122Z,20.31
2019-05-30T11:04:32.536Z,20.22
2019-05-30T11:06:18.663Z,19.92
2019-05-30T11:08:05.620Z,19.96
2019-05-30T11:09:39.828Z,19.83
2019-05-30T11:11:15.093Z,20.15
2019-05-30T11:12:56.379Z,19.71
2019-05-30T11:14:27.671Z,19.84
2019-05-30T11:16:02.400Z,19.98
2019-05-30T11:17:37.675Z,19.99
2019-05-30T11:19:12.328Z,19.91
2019-05-30T11:20:47.858Z,19.19
2019-05-30T11:22:22.715Z,19.83
2019-05-30T11:23:58.388Z,19.98
2019-05-30T11:25:33.168Z,19.99
2019-05-30T11:27:08.482Z,19.98
2019-05-30T11:28:43.226Z,20.01
2019-05-30T11:30:18.714Z,20.12
2019-05-30T11:31:53.358Z,19.82
2019-05-30T11:33:28.740Z,19.63
2019-05-30T11:35:03.413Z,20.11
2019-05-30T11:36:38.644Z,19.88
2019-05-30T11:38:13.313Z,19.83
2019-05-30T11:39:49.073Z,19.54
2019-05-30T11:41:23.834Z,19.83
2019-05-30T11:42:59.918Z,20.68
2019-05-30T11:44:34.907Z,20.54
2019-05-30T11:46:10.142Z,20.87
2019-05-30T11:47:44.777Z,21.41
2019-05-30T11:49:20.028Z,21.41
2019-05-30T11:50:55.775Z,20.35
2019-05-30T11:52:31.029Z,20.33
2019-05-30T11:54:05.668Z,20.91
2019-05-30T11:55:40.915Z,21.00
2019-05-30T11:57:15.675Z,20.86
2019-05-30T11:58:52.041Z,21.22
2019-05-30T12:00:27.260Z,21.82
2019-05-30T12:02:02.600Z,22.10
2019-05-30T12:03:37.316Z,22.34
2019-05-30T12:05:13.596Z,21.78
2019-05-30T12:06:53.145Z,22.31
2019-05-30T12:08:28.403Z,21.87
2019-05-30T12:10:03.106Z,21.96
2019-05-30T12:11:38.732Z,22.78
2019-05-30T12:13:14.452Z,23.09
2019-05-30T12:14:51.189Z,23.23
2019-05-30T12:16:26.092Z,22.08
2019-05-30T12:18:02.471Z,21.57
2019-05-30T12:19:37.364Z,21.20
2019-05-30T12:21:12.592Z,21.26
2019-05-30T12:22:47.314Z,21.20
2019-05-30T12:24:22.638Z,21.72
2019-05-30T12:25:58.063Z,21.75
2019-05-30T12:27:33.384Z,21.32
2019-05-30T12:29:08.174Z,20.90
2019-05-30T12:30:55.903Z,21.03
2019-05-30T12:32:19.753Z,20.95
2019-05-30T12:33:56.191Z,21.67
2019-05-30T12:35:30.928Z,22.20
2019-05-30T12:37:06.452Z,21.29
2019-05-30T12:38:41.119Z,21.59
2019-05-30T12:40:18.647Z,21.50
2019-05-30T12:41:53.359Z,21.43
2019-05-30T12:43:28.587Z,21.91
2019-05-30T12:45:06.855Z,21.49
2019-05-30T12:46:40.313Z,20.90
2019-05-30T12:48:15.990Z,21.27
2019-05-30T12:49:51.223Z,21.08
2019-05-30T12:51:25.898Z,21.21
2019-05-30T12:53:02.116Z,22.10
2019-05-30T12:54:37.986Z,21.75
2019-05-30T12:56:14.581Z,21.28
2019-05-30T12:57:49.266Z,21.58
2019-05-30T12:59:24.898Z,21.68
2019-05-30T13:01:00.885Z,21.74
2019-05-30T13:02:36.206Z,20.67
2019-05-30T13:04:10.973Z,20.87
2019-05-30T13:05:46.207Z,20.61
2019-05-30T13:07:20.879Z,20.13
2019-05-30T13:08:56.986Z,20.61
2019-05-30T13:10:32.789Z,19.88
2019-05-30T13:12:08.277Z,20.36
2019-05-30T13:13:43.056Z,20.56
2019-05-30T13:15:18.624Z,20.47
2019-05-30T13:16:53.363Z,20.68
2019-05-30T13:18:28.605Z,20.35
2019-05-30T13:20:05.014Z,20.25
2019-05-30T13:21:40.302Z,20.15
2019-05-30T13:23:14.968Z,19.83
2019-05-30T13:24:50.198Z,19.80
2019-05-30T13:26:24.917Z,19.81
2019-05-30T13:28:03.771Z,19.77
2019-05-30T13:29:36.955Z,19.79
2019-05-30T13:31:12.180Z,20.10
2019-05-30T13:32:46.831Z,19.82
2019-05-30T13:34:22.127Z,19.77
2019-05-30T13:35:57.052Z,19.80
2019-05-30T13:37:32.362Z,19.97
2019-05-30T13:39:07.904Z,20.25
2019-05-30T13:40:43.155Z,20.09
2019-05-30T13:42:18.135Z,20.18
2019-05-30T13:43:53.451Z,20.46
2019-05-30T13:45:28.115Z,20.10
2019-05-30T13:47:04.496Z,20.26
2019-05-30T13:48:40.178Z,20.19
2019-05-30T13:50:15.503Z,20.00
2019-05-30T13:51:50.150Z,20.07
2019-05-30T13:53:25.371Z,20.13
2019-05-30T13:55:00.969Z,19.94
2019-05-30T13:56:37.199Z,19.94
2019-05-30T13:58:11.861Z,20.08
2019-05-30T13:59:47.121Z,20.36
2019-05-30T14:01:21.826Z,20.41
2019-05-30T14:02:57.097Z,20.54
2019-05-30T14:04:31.844Z,20.58
2019-05-30T14:06:08.314Z,20.41
2019-05-30T14:07:49.429Z,20.98
2019-05-30T14:09:24.789Z,20.68
2019-05-30T14:11:00.500Z,20.79
2019-05-30T14:12:35.926Z,21.30
2019-05-30T14:14:10.987Z,21.29
2019-05-30T14:15:46.330Z,21.05
2019-05-30T14:17:20.977Z,20.87
2019-05-30T14:18:56.213Z,20.80
2019-05-30T14:20:30.876Z,20.47
2019-05-30T14:22:07.252Z,20.41
2019-05-30T14:23:42.092Z,20.88
2019-05-30T14:25:17.704Z,20.55
2019-05-30T14:26:52.380Z,20.46
2019-05-30T14:28:27.676Z,20.21
2019-05-30T14:30:04.673Z,20.14
2019-05-30T14:31:40.137Z,20.04
2019-05-30T14:33:14.777Z,19.95
2019-05-30T14:34:49.993Z,20.01
2019-05-30T14:36:24.733Z,20.15
2019-05-30T14:37:59.996Z,20.27
2019-05-30T14:39:34.670Z,19.99
2019-05-30T14:41:11.993Z,20.14
2019-05-30T14:42:46.375Z,20.01
2019-05-30T14:46:13.916Z,19.41
2019-05-30T14:47:49.202Z,19.66
2019-05-30T14:49:23.845Z,19.64
2019-05-30T14:50:59.094Z,19.69
2019-05-30T14:52:33.752Z,19.81
2019-05-30T14:54:09.071Z,19.63
2019-05-30T14:55:43.749Z,19.84
2019-05-30T14:57:19.538Z,20.41
2019-05-30T14:58:57.247Z,20.75
2019-05-30T15:00:32.548Z,20.30
2019-05-30T15:02:07.277Z,20.42
2019-05-30T15:03:42.528Z,20.29
2019-05-30T15:05:17.264Z,20.32
2019-05-30T15:06:52.491Z,20.10
2019-05-30T15:08:27.160Z,19.91
2019-05-30T15:10:02.399Z,20.13
2019-05-30T15:11:37.038Z,20.27
2019-05-30T15:13:12.290Z,20.25
2019-05-30T15:14:46.962Z,20.16
2019-05-30T15:16:22.200Z,20.59
2019-05-30T15:17:56.921Z,20.27
2019-05-30T15:19:32.151Z,19.67
2019-05-30T15:21:06.830Z,19.53
2019-05-30T15:22:42.143Z,19.60
2019-05-30T15:24:16.768Z,19.72
2019-05-30T15:25:52.070Z,19.70
2019-05-30T15:27:26.717Z,19.51
2019-05-30T15:29:01.961Z,19.73
2019-05-30T15:30:36.646Z,19.71
2019-05-30T15:32:12.358Z,19.79
2019-05-30T15:33:47.222Z,20.26
2019-05-30T15:35:22.566Z,20.41
2019-05-30T15:36:57.199Z,20.38
2019-05-30T15:38:32.454Z,20.52
2019-05-30T15:40:08.762Z,20.19
2019-05-30T15:41:44.052Z,20.39
2019-05-30T15:43:18.769Z,20.70
2019-05-30T15:44:54.076Z,20.56
2019-05-30T15:46:28.706Z,20.88
2019-05-30T15:48:04.027Z,20.70
2019-05-30T15:49:38.704Z,20.82
2019-05-30T15:51:14.669Z,20.62
2019-05-30T15:52:49.413Z,20.81
2019-05-30T15:54:24.694Z,21.01
2019-05-30T15:55:59.321Z,21.12
2019-05-30T15:57:34.628Z,20.94
2019-05-30T15:59:09.599Z,20.61
2019-05-30T16:00:44.857Z,20.54
2019-05-30T16:02:20.462Z,20.73
2019-05-30T16:03:55.760Z,20.58
2019-05-30T16:05:30.393Z,20.49
2019-05-30T16:07:05.754Z,20.41
2019-05-30T16:08:40.451Z,20.31
2019-05-30T16:10:16.969Z,20.16
2019-05-30T16:11:51.856Z,19.77
2019-05-30T16:13:27.092Z,20.15
2019-05-30T16:15:01.825Z,19.88
2019-05-30T16:16:40.089Z,19.85
2019-05-30T16:18:13.758Z,19.89
2019-05-30T16:19:49.131Z,19.52
2019-05-30T16:21:23.752Z,19.68
2019-05-30T16:22:58.982Z,19.55
2019-05-30T16:24:33.708Z,19.66
2019-05-30T16:26:08.918Z,19.52
2019-05-30T16:27:43.602Z,19.55
2019-05-30T16:29:19.816Z,19.59
2019-05-30T16:30:54.580Z,19.92
2019-05-30T16:32:29.836Z,19.66
2019-05-30T16:34:04.922Z,19.68
2019-05-30T16:35:40.199Z,19.84
2019-05-30T16:37:16.025Z,19.88
2019-05-30T16:38:51.279Z,20.01
2019-05-30T16:40:26.688Z,19.57
2019-05-30T16:42:02.181Z,19.52
2019-05-30T16:43:36.824Z,19.58
2019-05-30T16:45:18.707Z,19.24
2019-05-30T16:46:50.495Z,19.16
2019-05-30T16:48:26.735Z,19.32
2019-05-30T16:50:01.424Z,19.25
2019-05-30T16:51:36.675Z,19.31
2019-05-30T16:53:11.488Z,19.45
2019-05-30T16:54:46.793Z,19.40
2019-05-30T16:56:21.575Z,19.26
2019-05-30T16:57:56.839Z,19.11
2019-05-30T16:59:32.542Z,19.40
2019-05-30T17:01:08.954Z,19.52
2019-05-30T17:02:43.630Z,19.54
2019-05-30T17:04:18.953Z,19.43
2019-05-30T17:05:54.053Z,19.45
2019-05-30T17:07:29.331Z,19.29
2019-05-30T17:09:06.633Z,19.16
2019-05-30T17:10:42.626Z,19.04
2019-05-30T17:12:17.478Z,19.02
2019-05-30T17:13:52.716Z,19.16
2019-05-30T17:15:27.757Z,19.14
2019-05-30T17:17:03.259Z,19.04
2019-05-30T17:18:38.402Z,18.93
2019-05-30T17:20:16.461Z,18.91
2019-05-30T17:21:51.110Z,19.06
2019-05-30T17:23:26.942Z,19.17
2019-05-30T17:25:03.137Z,18.98
2019-05-30T17:26:39.444Z,18.98
2019-05-30T17:28:14.987Z,19.01
2019-05-30T17:29:50.329Z,19.25
2019-05-30T17:31:26.160Z,19.24
2019-05-30T17:33:01.436Z,19.18
2019-05-30T17:34:36.055Z,19.16
2019-05-30T17:36:11.316Z,19.02
2019-05-30T17:37:45.989Z,19.16
2019-05-30T17:39:22.456Z,19.07
2019-05-30T17:40:57.164Z,19.12
2019-05-30T17:42:32.416Z,19.09
2019-05-30T17:44:07.323Z,19.06
2019-05-30T17:45:42.575Z,18.90
2019-05-30T17:47:17.281Z,18.84
2019-05-30T17:48:52.536Z,18.95
2019-05-30T17:50:27.862Z,18.85
2019-05-30T17:52:03.243Z,18.89
2019-05-30T17:53:37.903Z,18.77
2019-05-30T17:55:13.782Z,18.71
2019-05-30T17:56:48.458Z,18.83
2019-05-30T17:58:30.599Z,18.73
2019-05-30T18:00:05.991Z,18.66
2019-05-30T18:01:41.486Z,18.51
2019-05-30T18:03:16.126Z,18.57
2019-05-30T18:04:52.331Z,18.68
2019-05-30T18:06:27.009Z,18.80
2019-05-30T18:08:02.379Z,18.74
2019-05-30T18:09:37.184Z,18.62
2019-05-30T18:11:12.455Z,18.52
2019-05-30T18:12:47.098Z,18.59
2019-05-30T18:14:23.037Z,18.50
2019-05-30T18:15:57.846Z,18.64
2019-05-30T18:17:33.097Z,18.65
2019-05-30T18:19:07.740Z,18.64
2019-05-30T18:20:48.274Z,18.47
2019-05-30T18:22:19.412Z,18.48
2019-05-30T18:23:54.642Z,18.54
2019-05-30T18:25:29.694Z,18.55
2019-05-30T18:27:05.035Z,18.62
2019-05-30T18:28:39.666Z,18.56
2019-05-30T18:30:16.526Z,18.54
2019-05-30T18:31:51.149Z,18.50
2019-05-30T18:33:26.408Z,18.67
2019-05-30T18:35:01.065Z,18.62
2019-05-30T18:36:36.373Z,18.37
2019-05-30T18:38:11.182Z,18.43
2019-05-30T18:39:46.471Z,18.38
2019-05-30T18:41:21.110Z,18.29
2019-05-30T18:42:56.338Z,18.34
2019-05-30T18:44:32.830Z,18.29
2019-05-30T18:46:07.969Z,18.20
2019-05-30T18:47:42.617Z,18.21
2019-05-30T18:49:17.931Z,18.16
2019-05-30T18:50:52.595Z,18.22
2019-05-30T18:52:28.360Z,18.13
2019-05-30T18:54:04.211Z,18.07
2019-05-30T18:55:39.437Z,18.05
2019-05-30T18:57:14.084Z,18.06
2019-05-30T18:58:49.295Z,18.09
2019-05-30T19:00:24.909Z,18.09
2019-05-30T19:02:00.274Z,18.08
2019-05-30T19:03:34.912Z,18.02
2019-05-30T19:05:10.446Z,18.00
2019-05-30T19:06:45.165Z,17.95
2019-05-30T19:08:20.392Z,17.99
2019-05-30T19:09:55.973Z,17.90
2019-05-30T19:11:34.873Z,17.93
2019-05-30T19:13:07.710Z,17.88
2019-05-30T19:14:44.540Z,17.95
2019-05-30T19:16:19.192Z,17.92
2019-05-30T19:17:54.502Z,17.88
2019-05-30T19:19:33.836Z,17.87
2019-05-30T19:21:09.046Z,17.81
2019-05-30T19:22:43.721Z,17.85
2019-05-30T19:24:20.772Z,17.83
2019-05-30T19:25:57.784Z,17.77
2019-05-30T19:27:37.132Z,17.78
2019-05-30T19:29:12.563Z,17.74
2019-05-30T19:30:47.902Z,17.74
2019-05-30T19:32:26.439Z,17.69
2019-05-30T19:34:06.843Z,17.75
2019-05-30T19:35:45.366Z,17.78
2019-05-30T19:37:22.630Z,17.78
2019-05-30T19:38:57.871Z,17.71
2019-05-30T19:40:33.668Z,17.66
2019-05-30T19:42:10.046Z,17.65
2019-05-30T19:43:44.702Z,17.63
2019-05-30T19:45:20.777Z,17.66
2019-05-30T19:46:55.420Z,17.61
2019-05-30T19:48:30.650Z,17.58
2019-05-30T19:50:05.990Z,17.58
2019-05-30T19:51:41.220Z,17.58
2019-05-30T19:53:15.834Z,17.49
2019-05-30T19:54:51.113Z,17.30
2019-05-30T19:56:25.743Z,17.17
2019-05-30T19:58:00.977Z,17.02
2019-05-30T19:59:36.276Z,16.96
2019-05-30T20:01:11.657Z,16.87
2019-05-30T20:02:46.385Z,16.82
2019-05-30T20:04:24.573Z,16.76
2019-05-30T20:06:01.096Z,16.67
2019-05-30T20:07:36.828Z,16.68
2019-05-30T20:09:13.653Z,16.73
2019-05-30T20:10:49.416Z,16.66
2019-05-30T20:12:27.057Z,16.55
2019-05-30T20:14:02.297Z,16.43
2019-05-30T20:15:37.691Z,16.40
2019-05-30T20:17:13.138Z,16.39
2019-05-30T20:19:00.251Z,16.44
2019-05-30T20:20:50.450Z,16.32
2019-05-30T20:22:11.901Z,16.34
2019-05-30T20:23:54.530Z,16.32
2019-05-30T20:25:23.561Z,16.15
2019-05-30T20:26:58.790Z,16.09
2019-05-30T20:28:34.706Z,16.06
2019-05-30T20:30:10.822Z,15.95
2019-05-30T20:31:45.796Z,15.94
2019-05-30T20:33:21.088Z,15.95
2019-05-30T20:34:55.749Z,15.89
2019-05-30T20:36:31.089Z,15.99
2019-05-30T20:38:05.725Z,15.94